createdAt,value
2018-12-26T00:03:49.316Z,97.63
2018-12-26T00:06:15.075Z,97.72
2018-12-26T00:08:40.861Z,97.50
2018-12-26T00:11:06.620Z,97.40
2018-12-26T00:13:32.424Z,97.39
2018-12-26T00:16:39.882Z,97.65
2018-12-26T00:19:05.725Z,97.63
2018-12-26T00:21:31.483Z,97.63
2018-12-26T00:23:57.286Z,97.79
2018-12-26T00:26:23.018Z,97.83
2018-12-26T00:28:48.773Z,97.78
2018-12-26T00:31:14.541Z,97.76
2018-12-26T00:33:40.304Z,97.88
2018-12-26T00:36:06.087Z,97.77
2018-12-26T00:38:31.841Z,97.78
2018-12-26T00:40:57.612Z,97.70
2018-12-26T00:43:23.370Z,97.75
2018-12-26T00:45:49.139Z,97.75
2018-12-26T00:48:14.963Z,97.91
2018-12-26T00:50:40.677Z,97.93
2018-12-26T00:53:06.440Z,97.65
2018-12-26T00:55:32.229Z,97.75
2018-12-26T01:01:05.192Z,97.78
2018-12-26T01:03:30.943Z,97.64
2018-12-26T01:05:56.712Z,97.49
2018-12-26T01:08:22.461Z,97.56
2018-12-26T01:10:48.230Z,97.48
2018-12-26T01:13:13.981Z,97.53
2018-12-26T01:15:39.756Z,97.59
2018-12-26T01:18:05.513Z,97.58
2018-12-26T01:20:31.288Z,97.72
2018-12-26T01:22:57.043Z,97.68
2018-12-26T01:25:22.800Z,97.66
2018-12-26T01:27:48.569Z,97.57
2018-12-26T01:30:14.330Z,97.56
2018-12-26T01:32:40.106Z,97.55
2018-12-26T01:35:05.874Z,97.39
2018-12-26T01:37:31.652Z,97.53
2018-12-26T01:39:57.411Z,97.44
2018-12-26T01:42:23.195Z,97.50
2018-12-26T01:45:08.851Z,97.45
2018-12-26T01:47:34.627Z,97.45
2018-12-26T01:50:00.382Z,97.59
2018-12-26T01:52:26.151Z,97.75
2018-12-26T01:54:51.933Z,97.74
2018-12-26T01:57:17.709Z,97.80
2018-12-26T01:59:43.458Z,97.80
2018-12-26T02:02:09.222Z,97.93
2018-12-26T02:04:34.984Z,97.92
2018-12-26T02:07:00.757Z,97.91
2018-12-26T02:09:26.516Z,97.70
2018-12-26T02:11:52.312Z,97.85
2018-12-26T02:14:18.234Z,97.73
2018-12-26T02:16:43.946Z,97.76
2018-12-26T02:19:09.693Z,97.71
2018-12-26T02:21:35.451Z,97.57
2018-12-26T02:24:01.230Z,97.64
2018-12-26T02:26:26.990Z,97.63
2018-12-26T02:28:52.792Z,97.58
2018-12-26T02:31:18.553Z,97.59
2018-12-26T02:33:44.352Z,97.53
2018-12-26T02:36:10.095Z,97.59
2018-12-26T02:38:35.863Z,97.54
2018-12-26T02:41:01.620Z,97.64
2018-12-26T02:43:27.395Z,97.80
2018-12-26T02:45:53.158Z,97.81
2018-12-26T02:48:18.930Z,97.82
2018-12-26T02:50:44.683Z,97.62
2018-12-26T02:53:10.449Z,97.84
2018-12-26T02:55:36.241Z,97.73
2018-12-26T02:58:02.019Z,97.66
2018-12-26T03:00:27.771Z,97.92
2018-12-26T03:02:53.536Z,97.92
2018-12-26T03:05:19.301Z,97.88
2018-12-26T03:07:45.076Z,97.96
2018-12-26T03:10:10.836Z,98.18
2018-12-26T03:12:36.602Z,98.20
2018-12-26T03:15:44.038Z,98.14
2018-12-26T03:18:09.803Z,98.25
2018-12-26T03:20:35.566Z,98.23
2018-12-26T03:23:01.350Z,98.17
2018-12-26T03:25:27.108Z,98.38
2018-12-26T03:27:52.897Z,98.34
2018-12-26T03:30:38.540Z,98.70
2018-12-26T03:33:04.332Z,98.70
2018-12-26T03:35:30.075Z,98.33
2018-12-26T03:37:55.852Z,98.30
2018-12-26T03:40:21.621Z,98.46
2018-12-26T03:42:47.376Z,98.44
2018-12-26T03:45:13.170Z,98.47
2018-12-26T03:48:20.605Z,98.46
2018-12-26T03:50:46.368Z,98.41
2018-12-26T03:53:12.169Z,98.31
2018-12-26T03:55:37.948Z,98.11
2018-12-26T03:58:03.694Z,98.04
2018-12-26T04:00:29.476Z,98.14
2018-12-26T04:02:55.237Z,98.07
2018-12-26T04:05:21.005Z,97.95
2018-12-26T04:07:46.881Z,98.22
2018-12-26T04:10:12.868Z,98.37
2018-12-26T04:12:38.613Z,98.35
2018-12-26T04:15:04.492Z,98.23
2018-12-26T04:17:30.244Z,98.33
2018-12-26T04:19:56.016Z,98.16
2018-12-26T04:22:21.923Z,98.15
2018-12-26T04:24:47.759Z,97.98
2018-12-26T04:27:15.629Z,98.07
2018-12-26T04:29:41.194Z,98.08
2018-12-26T04:32:06.949Z,98.15
2018-12-26T04:34:32.717Z,98.08
2018-12-26T04:36:58.481Z,98.29
2018-12-26T04:39:24.265Z,98.42
2018-12-26T04:41:50.016Z,98.38
2018-12-26T04:44:15.808Z,98.19
2018-12-26T04:46:41.564Z,98.21
2018-12-26T04:49:07.329Z,98.04
2018-12-26T04:51:33.113Z,98.30
2018-12-26T04:53:58.861Z,98.33
2018-12-26T04:56:24.654Z,98.34
2018-12-26T04:58:50.415Z,98.15
2018-12-26T05:01:16.182Z,98.47
2018-12-26T05:03:41.953Z,98.43
2018-12-26T05:06:07.707Z,98.35
2018-12-26T05:08:33.490Z,98.27
2018-12-26T05:10:59.257Z,98.25
2018-12-26T05:13:25.019Z,98.33
2018-12-26T05:15:50.781Z,98.44
2018-12-26T05:18:16.547Z,98.31
2018-12-26T05:20:42.316Z,98.46
2018-12-26T05:23:08.070Z,98.41
2018-12-26T05:25:33.848Z,98.33
2018-12-26T05:27:59.604Z,98.38
2018-12-26T05:30:25.369Z,98.29
2018-12-26T05:32:51.135Z,98.45
2018-12-26T05:35:16.894Z,98.69
2018-12-26T05:37:42.659Z,98.45
2018-12-26T05:40:08.434Z,98.55
2018-12-26T05:42:34.217Z,98.65
2018-12-26T05:44:59.980Z,98.67
2018-12-26T05:47:25.750Z,98.76
2018-12-26T05:49:51.514Z,98.75
2018-12-26T05:52:17.296Z,98.62
2018-12-26T05:54:43.057Z,99.10
2018-12-26T05:57:08.840Z,99.34
2018-12-26T05:59:34.595Z,99.66
2018-12-26T06:02:00.366Z,99.57
2018-12-26T06:04:26.130Z,99.59
2018-12-26T06:06:51.921Z,99.63
2018-12-26T06:09:17.667Z,99.69
2018-12-26T06:11:43.443Z,99.58
2018-12-26T06:14:09.200Z,99.83
2018-12-26T06:16:34.980Z,99.79
2018-12-26T06:19:00.734Z,99.83
2018-12-26T06:21:26.494Z,99.78
2018-12-26T06:23:52.261Z,100.00
2018-12-26T06:26:18.028Z,100.00
2018-12-26T06:28:43.810Z,99.90
2018-12-26T06:31:09.574Z,99.90
2018-12-26T06:33:35.351Z,99.77
2018-12-26T06:36:01.109Z,99.88
2018-12-26T06:38:26.883Z,99.94
2018-12-26T06:40:52.644Z,99.90
2018-12-26T06:43:18.427Z,100.00
2018-12-26T06:45:44.198Z,99.90
2018-12-26T06:48:09.999Z,99.92
2018-12-26T06:50:35.759Z,99.81
2018-12-26T06:53:01.522Z,100.00
2018-12-26T06:55:27.362Z,100.00
2018-12-26T06:58:00.012Z,99.93
2018-12-26T07:00:20.741Z,99.96
2018-12-26T07:02:46.506Z,100.00
2018-12-26T07:05:12.269Z,100.00
2018-12-26T07:07:38.037Z,99.96
2018-12-26T07:10:45.490Z,100.00
2018-12-26T07:13:11.244Z,100.00
2018-12-26T07:15:37.009Z,99.99
2018-12-26T07:18:02.779Z,99.93
2018-12-26T07:20:28.550Z,99.98
2018-12-26T07:22:54.311Z,100.00
2018-12-26T07:25:20.099Z,99.96
2018-12-26T07:27:45.859Z,99.96
2018-12-26T07:30:11.626Z,99.87
2018-12-26T07:32:37.393Z,99.87
2018-12-26T07:35:03.172Z,99.79
2018-12-26T07:37:28.922Z,99.74
2018-12-26T07:39:54.703Z,99.67
2018-12-26T07:42:20.467Z,99.56
2018-12-26T07:44:46.229Z,99.58
2018-12-26T07:47:11.991Z,99.49
2018-12-26T07:49:37.768Z,99.37
2018-12-26T07:52:03.524Z,99.34
2018-12-26T07:57:23.236Z,99.50
2018-12-26T07:59:49.007Z,99.62
2018-12-26T08:02:14.761Z,99.62
2018-12-26T08:04:40.505Z,99.83
2018-12-26T08:07:06.269Z,99.78
2018-12-26T08:09:32.021Z,99.79
2018-12-26T08:11:57.786Z,99.63
2018-12-26T08:14:23.542Z,99.67
2018-12-26T08:16:49.312Z,99.55
2018-12-26T08:19:15.083Z,99.59
2018-12-26T08:21:40.866Z,99.57
2018-12-26T08:24:06.643Z,99.52
2018-12-26T08:26:32.408Z,99.59
2018-12-26T08:28:58.179Z,99.61
2018-12-26T08:31:23.959Z,99.57
2018-12-26T08:33:49.720Z,99.60
2018-12-26T08:36:15.495Z,99.48
2018-12-26T08:38:41.259Z,99.44
2018-12-26T08:41:07.038Z,99.36
2018-12-26T08:43:32.793Z,99.35
2018-12-26T08:45:58.569Z,99.37
2018-12-26T08:48:24.319Z,99.32
2018-12-26T08:50:50.090Z,99.28
2018-12-26T08:53:15.847Z,99.20
2018-12-26T08:55:41.622Z,99.32
2018-12-26T08:58:07.395Z,99.29
2018-12-26T09:00:33.151Z,99.30
2018-12-26T09:02:58.922Z,99.24
2018-12-26T09:05:24.681Z,99.21
2018-12-26T09:07:50.458Z,99.25
2018-12-26T09:10:16.219Z,99.21
2018-12-26T09:12:41.995Z,99.18
2018-12-26T09:15:07.755Z,99.05
2018-12-26T09:17:33.531Z,99.14
2018-12-26T09:19:59.285Z,99.10
2018-12-26T09:22:25.065Z,99.06
2018-12-26T09:24:50.814Z,99.13
2018-12-26T09:27:16.588Z,99.05
2018-12-26T09:29:42.345Z,98.94
2018-12-26T09:32:08.120Z,99.08
2018-12-26T09:34:33.881Z,99.06
2018-12-26T09:36:59.649Z,99.02
2018-12-26T09:39:25.412Z,99.13
2018-12-26T09:41:51.183Z,99.14
2018-12-26T09:44:16.954Z,99.15
2018-12-26T09:46:42.780Z,99.10
2018-12-26T09:49:08.541Z,99.19
2018-12-26T09:51:34.310Z,99.18
2018-12-26T09:54:00.100Z,99.15
2018-12-26T09:56:39.248Z,99.08
2018-12-26T09:59:05.019Z,99.10
2018-12-26T10:01:30.779Z,99.24
2018-12-26T10:03:56.543Z,99.21
2018-12-26T10:06:22.344Z,99.19
2018-12-26T10:08:48.115Z,99.22
2018-12-26T10:11:13.870Z,99.28
2018-12-26T10:13:39.991Z,99.40
2018-12-26T10:16:07.452Z,99.44
2018-12-26T10:18:33.222Z,99.30
2018-12-26T10:20:58.990Z,99.35
2018-12-26T10:23:24.773Z,99.36
2018-12-26T10:25:50.537Z,99.44
2018-12-26T10:28:16.309Z,99.38
2018-12-26T10:30:42.073Z,99.33
2018-12-26T10:33:07.850Z,99.28
2018-12-26T10:35:33.603Z,99.20
2018-12-26T10:37:59.373Z,99.15
2018-12-26T10:40:25.147Z,99.14
2018-12-26T10:42:50.938Z,99.14
2018-12-26T10:45:36.592Z,99.12
2018-12-26T10:48:02.390Z,99.03
2018-12-26T10:50:28.153Z,98.97
2018-12-26T10:52:53.929Z,98.95
2018-12-26T10:55:19.680Z,98.92
2018-12-26T10:57:45.502Z,98.97
2018-12-26T11:00:11.263Z,98.85
2018-12-26T11:02:37.033Z,99.02
2018-12-26T11:05:44.535Z,98.77
2018-12-26T11:08:10.368Z,98.87
2018-12-26T11:10:36.159Z,98.91
2018-12-26T11:13:01.919Z,98.94
2018-12-26T11:15:27.686Z,98.94
2018-12-26T11:21:06.577Z,99.05
2018-12-26T11:23:32.345Z,98.99
2018-12-26T11:25:58.110Z,98.87
2018-12-26T11:28:23.889Z,98.89
2018-12-26T11:30:49.652Z,98.86
2018-12-26T11:33:15.402Z,98.86
2018-12-26T11:35:41.172Z,98.88
2018-12-26T11:38:06.934Z,98.94
2018-12-26T11:40:32.719Z,99.20
2018-12-26T11:42:58.489Z,99.17
2018-12-26T11:45:24.264Z,99.05
2018-12-26T11:47:50.019Z,99.03
2018-12-26T11:50:15.790Z,98.98
2018-12-26T11:52:41.548Z,99.02
2018-12-26T11:55:07.313Z,98.93
2018-12-26T11:57:33.078Z,99.00
2018-12-26T11:59:58.849Z,99.02
2018-12-26T12:02:24.606Z,99.06
2018-12-26T12:05:32.050Z,99.02
2018-12-26T12:07:57.805Z,99.03
2018-12-26T12:10:23.571Z,99.10
2018-12-26T12:12:49.336Z,99.20
2018-12-26T12:15:15.136Z,99.25
2018-12-26T12:17:40.890Z,99.19
2018-12-26T12:20:48.338Z,99.12
2018-12-26T12:23:14.094Z,99.17
2018-12-26T12:25:39.939Z,99.18
2018-12-26T12:28:05.735Z,99.08
2018-12-26T12:30:31.483Z,98.96
2018-12-26T12:32:57.250Z,98.94
2018-12-26T12:35:23.005Z,98.88
2018-12-26T12:37:48.772Z,98.85
2018-12-26T12:40:14.533Z,98.93
2018-12-26T12:42:40.424Z,98.83
2018-12-26T12:45:47.824Z,98.75
2018-12-26T12:48:13.594Z,98.71
2018-12-26T12:50:39.351Z,98.73
2018-12-26T12:53:05.144Z,98.69
2018-12-26T12:55:30.876Z,98.65
2018-12-26T12:57:56.660Z,98.59
2018-12-26T13:00:22.413Z,98.54
2018-12-26T13:02:48.181Z,98.53
2018-12-26T13:05:13.943Z,98.58
2018-12-26T13:07:39.714Z,98.52
2018-12-26T13:10:05.467Z,98.47
2018-12-26T13:12:31.236Z,98.51
2018-12-26T13:14:56.997Z,98.54
2018-12-26T13:17:22.865Z,98.51
2018-12-26T13:19:48.626Z,98.54
2018-12-26T13:22:14.382Z,98.59
2018-12-26T13:24:40.153Z,98.63
2018-12-26T13:27:05.914Z,98.61
2018-12-26T13:29:31.681Z,98.61
2018-12-26T13:31:57.445Z,98.53
2018-12-26T13:34:23.206Z,98.60
2018-12-26T13:36:48.958Z,98.79
2018-12-26T13:39:14.716Z,98.83
2018-12-26T13:41:40.467Z,98.81
2018-12-26T13:44:06.230Z,98.81
2018-12-26T13:46:33.903Z,98.76
2018-12-26T13:48:59.647Z,98.68
2018-12-26T13:51:25.406Z,98.81
2018-12-26T13:53:51.170Z,98.92
2018-12-26T13:56:16.938Z,98.94
2018-12-26T13:58:42.747Z,98.84
2018-12-26T14:01:08.472Z,98.86
2018-12-26T14:03:34.250Z,98.76
2018-12-26T14:06:00.010Z,98.66
2018-12-26T14:08:25.762Z,98.91
2018-12-26T14:10:51.532Z,98.83
2018-12-26T14:13:17.293Z,98.71
2018-12-26T14:15:43.057Z,98.74
2018-12-26T14:18:08.808Z,98.59
2018-12-26T14:20:34.574Z,98.60
2018-12-26T14:23:00.331Z,98.61
2018-12-26T14:25:26.098Z,98.66
2018-12-26T14:27:51.852Z,98.70
2018-12-26T14:30:17.612Z,98.89
2018-12-26T14:32:43.360Z,98.72
2018-12-26T14:35:09.129Z,98.66
2018-12-26T14:37:34.892Z,98.74
2018-12-26T14:40:00.653Z,98.64
2018-12-26T14:42:26.413Z,98.68
2018-12-26T14:44:52.189Z,98.71
2018-12-26T14:47:17.946Z,98.68
2018-12-26T14:49:43.702Z,98.65
2018-12-26T14:52:09.477Z,98.67
2018-12-26T14:54:35.238Z,98.59
2018-12-26T14:57:01.015Z,98.66
2018-12-26T14:59:26.761Z,98.67
2018-12-26T15:01:52.524Z,98.65
2018-12-26T15:04:18.272Z,98.48
2018-12-26T15:06:44.037Z,98.50
2018-12-26T15:09:09.795Z,98.43
2018-12-26T15:11:35.553Z,98.36
2018-12-26T15:14:01.300Z,98.34
2018-12-26T15:16:27.066Z,98.36
2018-12-26T15:18:52.822Z,98.33
2018-12-26T15:21:18.690Z,98.36
2018-12-26T15:23:44.450Z,98.20
2018-12-26T15:26:10.212Z,98.24
2018-12-26T15:28:35.968Z,98.27
2018-12-26T15:31:01.727Z,98.29
2018-12-26T15:33:27.480Z,98.17
2018-12-26T15:35:53.229Z,98.27
2018-12-26T15:38:18.995Z,98.33
2018-12-26T15:40:44.747Z,98.23
2018-12-26T15:43:10.511Z,98.15
2018-12-26T15:45:36.260Z,98.17
2018-12-26T15:48:03.339Z,98.20
2018-12-26T15:50:29.682Z,98.19
2018-12-26T15:52:55.444Z,98.14
2018-12-26T15:55:21.206Z,98.05
2018-12-26T15:57:46.993Z,97.97
2018-12-26T16:00:12.747Z,97.98
2018-12-26T16:02:38.512Z,97.99
2018-12-26T16:05:45.952Z,97.95
2018-12-26T16:08:11.722Z,97.98
2018-12-26T16:10:37.485Z,97.86
2018-12-26T16:13:03.246Z,97.87
2018-12-26T16:15:28.997Z,97.88
2018-12-26T16:17:54.762Z,97.96
2018-12-26T16:20:20.509Z,97.89
2018-12-26T16:22:46.272Z,97.63
2018-12-26T16:25:12.022Z,97.82
2018-12-26T16:27:37.791Z,97.95
2018-12-26T16:30:46.248Z,97.81
2018-12-26T16:33:12.898Z,97.90
2018-12-26T16:35:38.656Z,97.85
2018-12-26T16:38:04.429Z,97.82
2018-12-26T16:40:30.184Z,97.83
2018-12-26T16:42:55.949Z,97.83
2018-12-26T16:45:21.726Z,97.99
2018-12-26T16:47:47.483Z,97.89
2018-12-26T16:50:13.350Z,97.86
2018-12-26T16:52:39.108Z,97.92
2018-12-26T16:55:46.551Z,98.03
2018-12-26T16:58:12.352Z,98.01
2018-12-26T17:00:38.106Z,97.90
2018-12-26T17:03:03.858Z,98.12
2018-12-26T17:05:29.632Z,98.12
2018-12-26T17:07:55.386Z,98.09
2018-12-26T17:12:59.534Z,98.00
2018-12-26T17:15:25.402Z,98.13
2018-12-26T17:17:51.160Z,98.16
2018-12-26T17:20:16.931Z,98.25
2018-12-26T17:22:42.693Z,98.13
2018-12-26T17:25:08.471Z,98.18
2018-12-26T17:27:34.216Z,98.38
2018-12-26T17:29:59.981Z,98.29
2018-12-26T17:32:25.745Z,98.14
2018-12-26T17:34:51.514Z,98.33
2018-12-26T17:37:17.293Z,98.25
2018-12-26T17:39:43.041Z,98.36
2018-12-26T17:42:08.790Z,98.29
2018-12-26T17:44:34.535Z,98.34
2018-12-26T17:47:00.305Z,98.39
2018-12-26T17:49:26.068Z,98.37
2018-12-26T17:51:52.720Z,98.35
2018-12-26T17:55:01.203Z,98.43
2018-12-26T17:57:26.965Z,98.44
2018-12-26T18:00:34.411Z,98.56
2018-12-26T18:03:00.165Z,98.50
2018-12-26T18:05:25.920Z,98.53
2018-12-26T18:07:51.669Z,98.65
2018-12-26T18:10:17.422Z,98.68
2018-12-26T18:12:43.192Z,98.59
2018-12-26T18:15:08.940Z,98.50
2018-12-26T18:17:34.703Z,98.49
2018-12-26T18:20:00.471Z,98.59
2018-12-26T18:22:26.320Z,98.62
2018-12-26T18:24:52.064Z,98.56
2018-12-26T18:27:17.831Z,98.57
2018-12-26T18:29:43.588Z,98.77
2018-12-26T18:32:09.355Z,98.67
2018-12-26T18:34:35.128Z,98.56
2018-12-26T18:37:00.866Z,98.79
2018-12-26T18:39:26.612Z,98.74
2018-12-26T18:41:52.378Z,98.48
2018-12-26T18:44:18.128Z,98.57
2018-12-26T18:46:43.886Z,98.41
2018-12-26T18:49:09.674Z,98.29
2018-12-26T18:51:55.328Z,98.42
2018-12-26T18:54:21.081Z,98.42
2018-12-26T18:56:46.864Z,98.08
2018-12-26T18:59:12.630Z,97.97
2018-12-26T19:01:38.398Z,97.84
2018-12-26T19:04:04.174Z,97.74
2018-12-26T19:06:29.926Z,97.50
2018-12-26T19:08:55.691Z,97.53
2018-12-26T19:11:21.444Z,97.36
2018-12-26T19:13:47.322Z,97.41
2018-12-26T19:16:13.071Z,97.36
2018-12-26T19:18:38.837Z,97.34
2018-12-26T19:21:04.602Z,97.26
2018-12-26T19:23:30.388Z,97.19
2018-12-26T19:25:56.147Z,97.09
2018-12-26T19:28:21.917Z,97.03
2018-12-26T19:30:47.674Z,97.04
2018-12-26T19:33:13.442Z,97.13
2018-12-26T19:35:39.200Z,97.16
2018-12-26T19:38:04.974Z,97.10
2018-12-26T19:40:30.735Z,97.16
2018-12-26T19:42:56.598Z,97.22
2018-12-26T19:45:22.369Z,97.13
2018-12-26T19:47:48.129Z,97.21
2018-12-26T19:50:13.905Z,97.13
2018-12-26T19:52:39.659Z,97.05
2018-12-26T19:55:47.111Z,96.91
2018-12-26T19:58:12.876Z,96.91
2018-12-26T20:00:38.646Z,96.97
2018-12-26T20:03:04.400Z,96.74
2018-12-26T20:05:30.170Z,96.57
2018-12-26T20:07:55.931Z,96.42
2018-12-26T20:10:21.698Z,96.21
2018-12-26T20:12:47.461Z,96.17
2018-12-26T20:15:13.221Z,96.10
2018-12-26T20:17:38.982Z,96.16
2018-12-26T20:20:46.430Z,96.09
2018-12-26T20:23:12.182Z,96.06
2018-12-26T20:25:37.944Z,96.01
2018-12-26T20:28:03.709Z,95.91
2018-12-26T20:30:29.490Z,95.87
2018-12-26T20:32:55.241Z,95.83
2018-12-26T20:35:21.007Z,95.59
2018-12-26T20:37:46.777Z,95.79
2018-12-26T20:40:12.550Z,95.84
2018-12-26T20:42:38.309Z,95.85
2018-12-26T20:48:17.528Z,95.85
2018-12-26T20:50:43.302Z,95.69
2018-12-26T20:53:09.077Z,95.67
2018-12-26T20:55:34.841Z,95.59
2018-12-26T20:58:00.605Z,95.58
2018-12-26T21:00:26.381Z,95.57
2018-12-26T21:02:52.137Z,95.62
2018-12-26T21:05:17.903Z,95.33
2018-12-26T21:07:43.666Z,95.36
2018-12-26T21:10:09.437Z,95.49
2018-12-26T21:12:35.202Z,95.56
2018-12-26T21:15:00.964Z,95.51
2018-12-26T21:17:26.728Z,95.66
2018-12-26T21:19:52.633Z,95.61
2018-12-26T21:22:18.378Z,95.67
2018-12-26T21:24:44.141Z,95.57
2018-12-26T21:27:09.912Z,95.51
2018-12-26T21:29:35.685Z,95.51
2018-12-26T21:32:01.553Z,95.56
2018-12-26T21:34:27.292Z,95.61
2018-12-26T21:36:53.062Z,95.53
2018-12-26T21:39:18.851Z,95.67
2018-12-26T21:41:44.617Z,95.76
2018-12-26T21:44:10.378Z,95.81
2018-12-26T21:46:36.143Z,95.97
2018-12-26T21:49:01.914Z,96.16
2018-12-26T21:51:27.694Z,96.08
2018-12-26T21:53:53.446Z,96.12
2018-12-26T21:56:19.220Z,96.41
2018-12-26T21:58:44.990Z,96.36
2018-12-26T22:01:10.812Z,96.49
2018-12-26T22:03:36.533Z,96.58
2018-12-26T22:06:02.277Z,96.60
2018-12-26T22:08:28.038Z,96.62
2018-12-26T22:10:53.818Z,96.63
2018-12-26T22:13:19.565Z,96.99
2018-12-26T22:15:45.355Z,96.70
2018-12-26T22:18:12.276Z,96.65
2018-12-26T22:20:40.074Z,96.54
2018-12-26T22:23:06.179Z,96.94
2018-12-26T22:25:32.090Z,97.04
2018-12-26T22:27:57.984Z,97.21
2018-12-26T22:30:23.740Z,97.20
2018-12-26T22:32:49.695Z,97.19
2018-12-26T22:35:15.436Z,97.29
2018-12-26T22:37:41.197Z,97.41
2018-12-26T22:40:07.151Z,97.32
2018-12-26T22:42:33.310Z,97.44
2018-12-26T22:44:59.403Z,97.57
2018-12-26T22:47:25.399Z,97.56
2018-12-26T22:49:51.292Z,97.67
2018-12-26T22:52:17.062Z,97.57
2018-12-26T22:54:49.569Z,97.57
2018-12-26T22:57:15.353Z,97.44
2018-12-26T22:59:41.114Z,97.32
2018-12-26T23:02:06.992Z,97.26
2018-12-26T23:04:33.058Z,97.02
2018-12-26T23:06:58.954Z,97.00
2018-12-26T23:09:25.081Z,97.10
2018-12-26T23:11:50.834Z,97.06
2018-12-26T23:14:16.605Z,96.90
2018-12-26T23:16:42.567Z,96.67
2018-12-26T23:19:08.334Z,96.66
2018-12-26T23:21:34.097Z,96.72
2018-12-26T23:24:00.299Z,96.47
2018-12-26T23:26:26.345Z,96.42
2018-12-26T23:28:52.337Z,96.44
2018-12-26T23:31:18.274Z,96.47
2018-12-26T23:33:44.152Z,96.37
2018-12-26T23:36:10.037Z,96.32
2018-12-26T23:38:35.807Z,96.46
2018-12-26T23:41:01.566Z,96.41
2018-12-26T23:43:27.334Z,96.41
2018-12-26T23:45:53.089Z,96.73
2018-12-26T23:48:20.300Z,96.79
2018-12-26T23:50:46.550Z,97.08
2018-12-26T23:53:12.314Z,97.10
2018-12-26T23:55:38.089Z,97.30
2018-12-26T23:58:03.856Z,97.22
